createdAt,value
2023-03-27T00:00:00.042Z,-61656
2023-03-27T00:05:01.617Z,-61656
2023-03-27T00:10:03.057Z,-61656
2023-03-27T00:15:04.482Z,-61656
2023-03-27T00:20:05.973Z,-61656
2023-03-27T00:25:07.424Z,-61656
2023-03-27T00:30:08.862Z,0
2023-03-27T00:35:10.344Z,0
2023-03-27T00:40:12.015Z,0
2023-03-27T00:45:13.504Z,-61656
2023-03-27T00:50:14.991Z,-61656
2023-03-27T00:55:16.473Z,0
2023-03-27T01:00:17.941Z,0
2023-03-27T01:05:19.438Z,0
2023-03-27T01:10:20.888Z,0
2023-03-27T01:15:22.309Z,0
2023-03-27T01:20:23.898Z,0
2023-03-27T01:25:25.305Z,0
2023-03-27T01:30:26.875Z,0
2023-03-27T01:35:28.506Z,0
2023-03-27T01:40:29.961Z,0
2023-03-27T01:45:31.409Z,0
2023-03-27T01:50:32.972Z,0
2023-03-27T01:55:34.391Z,0
2023-03-27T02:00:51.726Z,0
2023-03-27T02:05:54.964Z,0
2023-03-27T02:10:56.678Z,0
2023-03-27T02:15:58.240Z,0
2023-03-27T02:20:59.847Z,0
2023-03-27T02:26:01.360Z,0
2023-03-27T02:31:05.634Z,0
2023-03-27T02:36:33.664Z,0
2023-03-27T02:41:35.040Z,0
2023-03-27T02:46:37.925Z,0
2023-03-27T02:51:39.433Z,0
2023-03-27T02:56:40.874Z,0
2023-03-27T03:01:42.395Z,0
2023-03-27T03:06:43.882Z,0
2023-03-27T03:11:45.362Z,0
2023-03-27T03:16:46.883Z,0
2023-03-27T03:21:48.324Z,0
2023-03-27T03:26:49.804Z,0
2023-03-27T03:31:51.199Z,0
2023-03-27T03:36:52.856Z,0
2023-03-27T03:41:54.296Z,0
2023-03-27T03:46:55.711Z,0
2023-03-27T03:52:03.527Z,0
2023-03-27T03:57:05.930Z,0
2023-03-27T04:02:07.808Z,0
2023-03-27T04:07:09.468Z,0
2023-03-27T04:12:10.913Z,0
2023-03-27T04:17:12.549Z,0
2023-03-27T04:22:13.953Z,0
2023-03-27T04:27:15.402Z,0
2023-03-27T04:32:16.844Z,0
2023-03-27T04:37:18.279Z,0
2023-03-27T04:42:25.171Z,0
2023-03-27T04:47:26.697Z,0
2023-03-27T04:52:28.148Z,61544
2023-03-27T04:57:29.598Z,30744
2023-03-27T05:02:31.130Z,61544
2023-03-27T05:07:32.645Z,61544
2023-03-27T05:12:34.078Z,0
2023-03-27T05:17:35.485Z,20477.33333
2023-03-27T05:22:36.989Z,15344
2023-03-27T05:27:38.433Z,20477.33333
2023-03-27T05:32:39.847Z,20477.33333
2023-03-27T05:37:41.310Z,61544
2023-03-27T05:42:42.736Z,61544
2023-03-27T05:47:44.202Z,61544
2023-03-27T05:52:45.730Z,0
2023-03-27T05:57:47.172Z,0
2023-03-27T06:02:48.604Z,61544
2023-03-27T06:07:50.092Z,61544
2023-03-27T06:12:51.564Z,61544
2023-03-27T06:17:53.081Z,15344
2023-03-27T06:22:54.569Z,15344
2023-03-27T06:27:55.998Z,30744
2023-03-27T06:32:57.427Z,30744
2023-03-27T06:37:58.920Z,20477.33333
2023-03-27T06:43:00.325Z,61544
2023-03-27T06:48:01.892Z,61544
2023-03-27T06:53:27.302Z,30744
2023-03-27T06:58:29.668Z,20477.33333
2023-03-27T07:03:31.093Z,12264
2023-03-27T07:08:32.518Z,8744
2023-03-27T07:13:33.938Z,8744
2023-03-27T07:18:35.502Z,10210.66667
2023-03-27T07:23:37.109Z,20477.33333
2023-03-27T07:28:38.578Z,10210.66667
2023-03-27T07:33:40.275Z,12264
2023-03-27T07:38:41.897Z,30744
2023-03-27T07:43:43.329Z,10210.66667
2023-03-27T07:48:44.802Z,15344
2023-03-27T07:53:46.279Z,6788.44444
2023-03-27T07:58:47.734Z,4050.66667
2023-03-27T08:03:49.414Z,2877.33333
2023-03-27T08:08:50.978Z,3024
2023-03-27T08:13:52.491Z,4682.46154
2023-03-27T08:18:53.930Z,2313.23077
2023-03-27T08:23:56.774Z,2744
2023-03-27T08:28:59.211Z,2144
2023-03-27T08:34:00.582Z,3024
2023-03-27T08:39:02.212Z,2408
2023-03-27T08:44:03.615Z,4344
2023-03-27T08:49:05.014Z,2622.26087
2023-03-27T08:54:06.629Z,1931.09677
2023-03-27T08:59:08.101Z,2313.23077
2023-03-27T09:04:09.697Z,1704
2023-03-27T09:09:11.121Z,3366.22222
2023-03-27T09:14:12.694Z,4344
2023-03-27T09:19:14.126Z,1704
2023-03-27T09:24:15.884Z,1484
2023-03-27T09:29:20.041Z,1151.84314
2023-03-27T09:34:22.100Z,1755.76471
2023-03-27T09:39:23.658Z,1565.05263
2023-03-27T09:44:25.329Z,1997.33333
2023-03-27T09:49:26.808Z,1201.14286
2023-03-27T09:54:28.417Z,1704
2023-03-27T09:59:29.826Z,2144
2023-03-27T10:04:31.402Z,3794
2023-03-27T10:09:33.033Z,3567.52941
2023-03-27T10:14:34.462Z,1931.09677
2023-03-27T10:19:35.894Z,1151.84314
2023-03-27T10:24:44.914Z,937.54839
2023-03-27T10:29:47.688Z,1484
2023-03-27T10:34:49.144Z,1227.33333
2023-03-27T10:39:50.558Z,1064
2023-03-27T10:44:51.988Z,1376.55814
2023-03-27T10:49:53.448Z,1006.06897
2023-03-27T10:54:54.938Z,1344
2023-03-27T10:59:56.323Z,1084.74074
2023-03-27T11:04:57.714Z,1446.43902
2023-03-27T11:09:59.195Z,1201.14286
2023-03-27T11:15:00.631Z,1227.33333
2023-03-27T11:20:02.133Z,6104
2023-03-27T11:25:03.739Z,6104
2023-03-27T11:30:05.213Z,3794
2023-03-27T11:35:06.677Z,4682.46154
2023-03-27T11:40:08.341Z,7644
2023-03-27T11:45:09.826Z,5544
2023-03-27T11:50:11.268Z,3024
2023-03-27T11:55:12.945Z,1755.76471
2023-03-27T12:00:14.345Z,1106.26415
2023-03-27T12:05:15.747Z,953.83607
2023-03-27T12:10:17.196Z,1755.76471
2023-03-27T12:15:18.920Z,2744
2023-03-27T12:20:20.348Z,1201.14286
2023-03-27T12:25:21.853Z,1608.86486
2023-03-27T12:30:23.577Z,1312.88889
2023-03-27T12:35:25.039Z,1024.70175
2023-03-27T12:40:26.726Z,1064
2023-03-27T12:45:28.155Z,1312.88889
2023-03-27T12:50:29.576Z,2068.13793
2023-03-27T12:55:30.976Z,2510.66667
2023-03-27T13:00:32.583Z,1755.76471
2023-03-27T13:05:33.982Z,921.77778
2023-03-27T13:10:35.511Z,970.66667
2023-03-27T13:15:36.957Z,799.55556
2023-03-27T13:20:38.432Z,479.65217
2023-03-27T13:25:40.125Z,1376.55814
2023-03-27T13:30:41.582Z,3186.10526
2023-03-27T13:35:43.077Z,2744
2023-03-27T13:40:44.988Z,4050.66667
2023-03-27T13:45:46.476Z,3567.52941
2023-03-27T13:50:47.900Z,2622.26087
2023-03-27T13:55:49.278Z,1201.14286
2023-03-27T14:00:50.849Z,733.74359
2023-03-27T14:05:52.291Z,542.05825
2023-03-27T14:10:53.657Z,514.37037
2023-03-27T14:15:55.126Z,553.90099
2023-03-27T14:20:56.635Z,547.92157
2023-03-27T14:25:58.279Z,566.22222
2023-03-27T14:30:59.807Z,547.92157
2023-03-27T14:36:01.624Z,599.31915
2023-03-27T14:41:03.250Z,937.54839
2023-03-27T14:46:04.713Z,1810.66667
2023-03-27T14:51:06.376Z,6104
2023-03-27T14:56:07.815Z,7644
2023-03-27T15:01:09.265Z,6104
2023-03-27T15:06:10.689Z,5077.33333
2023-03-27T15:11:12.123Z,5544
2023-03-27T15:16:13.597Z,6104
2023-03-27T15:21:15.127Z,4682.46154
2023-03-27T15:26:16.545Z,3567.52941
2023-03-27T15:31:18.054Z,3024
2023-03-27T15:36:19.476Z,3186.10526
2023-03-27T15:41:20.952Z,2225.48148
2023-03-27T15:46:24.136Z,3186.10526
2023-03-27T15:51:27.645Z,4050.66667
2023-03-27T15:56:29.051Z,3366.22222
2023-03-27T16:01:30.733Z,3567.52941
2023-03-27T16:06:32.169Z,6104
2023-03-27T16:11:33.583Z,10210.66667
2023-03-27T16:16:35.050Z,12264
2023-03-27T16:21:36.588Z,15344
2023-03-27T16:26:38.107Z,20477.33333
2023-03-27T16:31:39.585Z,30744
2023-03-27T16:36:41.062Z,30744
2023-03-27T16:41:42.463Z,30744
2023-03-27T16:46:43.885Z,30744
2023-03-27T16:51:45.344Z,30744
2023-03-27T16:56:46.859Z,30744
2023-03-27T17:01:48.578Z,0
2023-03-27T17:06:50.025Z,0
2023-03-27T17:11:51.506Z,0
2023-03-27T17:16:53.001Z,0
2023-03-27T17:21:54.482Z,0
2023-03-27T17:26:55.914Z,0
2023-03-27T17:31:57.612Z,0
2023-03-27T17:36:59.069Z,0
2023-03-27T17:42:00.523Z,0
2023-03-27T17:47:02.101Z,0
2023-03-27T17:52:03.598Z,0
2023-03-27T17:57:05.108Z,0
2023-03-27T18:02:06.584Z,0
2023-03-27T18:07:08.223Z,0
2023-03-27T18:12:09.719Z,0
2023-03-27T18:17:11.154Z,0
2023-03-27T18:22:12.629Z,0
2023-03-27T18:27:14.054Z,0
2023-03-27T18:32:15.519Z,0
2023-03-27T18:37:16.939Z,-61656
2023-03-27T18:42:18.512Z,-61656
2023-03-27T18:47:19.968Z,-61656
2023-03-27T18:52:21.393Z,-61656
2023-03-27T18:57:22.935Z,-61656
2023-03-27T19:02:24.654Z,-61656
2023-03-27T19:07:26.142Z,-61656
2023-03-27T19:12:27.853Z,-61656
2023-03-27T19:17:29.370Z,-61656
2023-03-27T19:22:30.787Z,-61656
2023-03-27T19:27:39.062Z,-61656
2023-03-27T19:32:41.144Z,-61656
2023-03-27T19:37:42.626Z,-61656
2023-03-27T19:42:44.052Z,-61656
2023-03-27T19:47:45.548Z,0
2023-03-27T19:52:54.383Z,-61656
2023-03-27T19:58:02.890Z,-61656
2023-03-27T20:03:04.416Z,-61656
2023-03-27T20:08:05.899Z,0
2023-03-27T20:13:07.420Z,0
2023-03-27T20:18:09.101Z,-61656
2023-03-27T20:23:10.599Z,-61656
2023-03-27T20:28:12.109Z,-61656
2023-03-27T20:33:13.546Z,-61656
2023-03-27T20:38:15.251Z,-61656
2023-03-27T20:43:16.707Z,-61656
2023-03-27T20:48:18.153Z,-61656
2023-03-27T20:53:19.592Z,-61656
2023-03-27T20:58:21.036Z,-61656
2023-03-27T21:03:22.826Z,0
2023-03-27T21:08:24.458Z,-61656
2023-03-27T21:13:26.185Z,-61656
2023-03-27T21:18:27.714Z,-61656
2023-03-27T21:23:29.151Z,-61656
2023-03-27T21:28:30.578Z,-61656
2023-03-27T21:33:32.027Z,-61656
2023-03-27T21:38:33.475Z,-61656
2023-03-27T21:43:35.148Z,-61656
2023-03-27T21:48:36.876Z,-61656
2023-03-27T21:53:38.287Z,-61656
2023-03-27T21:58:39.775Z,-61656
2023-03-27T22:03:41.332Z,-61656
2023-03-27T22:08:42.849Z,-30856
2023-03-27T22:13:44.293Z,-30856
2023-03-27T22:18:45.789Z,-61656
2023-03-27T22:23:47.209Z,-61656
2023-03-27T22:28:48.869Z,-61656
2023-03-27T22:33:50.228Z,-30856
2023-03-27T22:38:51.621Z,-61656
2023-03-27T22:43:53.220Z,-30856
2023-03-27T22:48:54.663Z,-61656
2023-03-27T22:53:56.346Z,-61656
2023-03-27T22:58:57.743Z,-30856
2023-03-27T23:03:59.319Z,-30856
2023-03-27T23:09:01.174Z,-30856
2023-03-27T23:14:02.749Z,-30856
2023-03-27T23:19:04.168Z,-30856
2023-03-27T23:24:05.755Z,-30856
2023-03-27T23:29:07.423Z,-30856
2023-03-27T23:34:08.860Z,-30856
2023-03-27T23:39:10.317Z,-61656
2023-03-27T23:44:11.753Z,-61656
2023-03-27T23:49:13.261Z,-61656
2023-03-27T23:54:14.780Z,-61656
2023-03-27T23:59:16.196Z,-61656
